Time;durP1;ratioP1;P1;durP2;ratioP2;P2;SDS_P1;SDS_P2;PMS_P1;PMS_P2;Temp;Humidity;BMP_temperature;BMP_pressure;BME280_temperature;BME280_humidity;BME280_pressure;Samples;Min_cycle;Max_cycle;Signal;HPM_P1;HPM_P2
2023/08/10 00:00:25;;;;;;;9.20;2.80;;;;;;;11.43;100.00;101953.94;10454105;28;20090;-67
2023/08/10 00:05:25;;;;;;;13.23;2.50;;;;;;;11.43;100.00;101974.09;10453618;28;20044;-66
2023/08/10 00:10:26;;;;;;;10.43;3.13;;;;;;;11.33;100.00;101968.31;10459271;28;20052;-66
2023/08/10 00:15:26;;;;;;;8.25;2.60;;;;;;;11.29;100.00;101970.69;10456841;28;20033;-66
2023/08/10 00:20:27;;;;;;;10.35;3.00;;;;;;;11.25;100.00;101979.66;10446742;28;20070;-67
2023/08/10 00:25:28;;;;;;;8.15;2.85;;;;;;;11.18;100.00;101981.63;10456019;28;20045;-66
2023/08/10 00:30:28;;;;;;;9.18;3.47;;;;;;;11.10;100.00;101969.88;10457029;28;20460;-65
2023/08/10 00:35:30;;;;;;;5.22;2.88;;;;;;;11.09;100.00;101983.88;10425208;28;20486;-66
2023/08/10 00:40:30;;;;;;;6.20;2.60;;;;;;;11.05;100.00;101972.44;10421205;28;20041;-66
2023/08/10 00:45:31;;;;;;;5.20;2.83;;;;;;;11.05;100.00;101980.72;10415687;28;20080;-65
2023/08/10 00:50:31;;;;;;;6.45;3.30;;;;;;;11.01;100.00;101976.75;10439095;28;20044;-66
2023/08/10 00:55:32;;;;;;;6.18;3.33;;;;;;;10.99;100.00;101987.16;10397279;28;20030;-66
2023/08/10 01:00:32;;;;;;;8.98;3.50;;;;;;;10.97;100.00;101974.69;10437006;28;20044;-67
2023/08/10 01:05:38;;;;;;;6.75;3.70;;;;;;;10.99;100.00;101981.63;10418718;28;20064;-66
2023/08/10 01:10:53;;;;;;;10.30;3.67;;;;;;;11.07;100.00;101984.09;10484350;28;20069;-66
2023/08/10 01:15:56;;;;;;;8.43;3.38;;;;;;;11.14;100.00;101967.50;10485781;28;20056;-67
2023/08/10 01:20:58;;;;;;;11.63;3.85;;;;;;;11.27;100.00;101970.06;10409991;28;20042;-67
2023/08/10 01:25:58;;;;;;;12.80;3.33;;;;;;;11.42;100.00;101983.44;10462842;28;20078;-66
2023/08/10 01:31:00;;;;;;;9.50;3.85;;;;;;;11.50;100.00;101979.53;10467758;28;20087;-66
2023/08/10 01:36:00;;;;;;;11.00;4.13;;;;;;;11.49;100.00;101978.69;10468435;28;20130;-66
2023/08/10 01:41:01;;;;;;;7.40;4.15;;;;;;;11.45;100.00;101999.53;10467440;28;20045;-66
2023/08/10 01:46:02;;;;;;;5.80;3.63;;;;;;;11.36;100.00;101987.13;10465202;28;20080;-67
2023/08/10 01:51:03;;;;;;;6.55;3.70;;;;;;;11.26;100.00;101989.59;10463785;28;20071;-66
2023/08/10 01:56:03;;;;;;;6.38;4.00;;;;;;;11.16;100.00;101994.81;10467611;28;20094;-66
2023/08/10 02:01:04;;;;;;;4.80;3.45;;;;;;;11.10;100.00;101997.44;10467813;28;20049;-66
2023/08/10 02:06:04;;;;;;;12.65;4.25;;;;;;;11.11;100.00;101993.56;10450031;28;20045;-67
2023/08/10 02:11:05;;;;;;;4.72;3.33;;;;;;;11.18;100.00;101996.25;10467708;28;20037;-66
2023/08/10 02:16:05;;;;;;;9.10;3.50;;;;;;;11.23;100.00;101990.91;10469129;28;20140;-66
2023/08/10 02:21:06;;;;;;;8.50;3.90;;;;;;;11.31;100.00;101992.50;10457870;28;20454;-66
2023/08/10 02:26:06;;;;;;;5.60;3.50;;;;;;;11.36;100.00;101994.56;10460918;28;20064;-66
2023/08/10 02:31:07;;;;;;;7.90;3.88;;;;;;;11.37;100.00;102002.59;10462311;28;20091;-66
2023/08/10 02:36:07;;;;;;;10.27;4.28;;;;;;;11.34;100.00;102005.81;10457562;28;20041;-66
2023/08/10 02:41:08;;;;;;;7.03;3.67;;;;;;;11.28;100.00;102004.81;10458990;28;20357;-66
2023/08/10 02:46:08;;;;;;;9.10;4.55;;;;;;;11.25;100.00;102004.47;10458566;28;20097;-66
2023/08/10 02:51:09;;;;;;;7.47;3.75;;;;;;;11.31;100.00;102009.03;10460656;28;20043;-66
2023/08/10 02:56:09;;;;;;;8.18;4.47;;;;;;;11.39;100.00;102005.09;10459247;28;20037;-67
2023/08/10 03:01:09;;;;;;;8.55;4.05;;;;;;;11.45;100.00;102007.81;10443447;28;20040;-66
2023/08/10 03:06:10;;;;;;;9.10;4.05;;;;;;;11.50;100.00;102013.44;10457596;28;20041;-66
2023/08/10 03:11:11;;;;;;;7.07;3.70;;;;;;;11.48;100.00;102029.38;10453949;28;20871;-66
2023/08/10 03:16:12;;;;;;;6.18;4.30;;;;;;;11.49;100.00;102022.81;10458104;28;20060;-66
2023/08/10 03:21:12;;;;;;;9.55;5.18;;;;;;;11.55;100.00;102032.03;10441497;28;20037;-66
2023/08/10 03:26:13;;;;;;;10.50;4.35;;;;;;;11.60;100.00;102020.34;10459431;28;20048;-66
2023/08/10 03:31:13;;;;;;;9.30;4.30;;;;;;;11.66;100.00;102028.53;10459028;28;20051;-66
2023/08/10 03:36:15;;;;;;;7.40;4.32;;;;;;;11.71;100.00;102030.56;10439904;28;20044;-66
2023/08/10 03:41:15;;;;;;;8.80;4.80;;;;;;;11.71;100.00;102014.00;10440909;28;20033;-66
2023/08/10 03:46:16;;;;;;;11.88;6.43;;;;;;;11.80;100.00;102034.69;10422623;28;20500;-66
2023/08/10 03:51:16;;;;;;;15.10;5.40;;;;;;;11.86;100.00;102028.22;10436074;28;20048;-66
2023/08/10 03:56:17;;;;;;;10.77;4.90;;;;;;;11.90;100.00;102023.94;10457056;28;20102;-64
2023/08/10 04:01:17;;;;;;;10.75;3.80;;;;;;;11.95;100.00;102025.16;10438128;28;25168;-66
2023/08/10 04:06:18;;;;;;;14.10;4.80;;;;;;;12.01;100.00;102036.13;10455820;28;20072;-66
2023/08/10 04:11:19;;;;;;;11.38;3.67;;;;;;;12.06;100.00;102027.13;10451777;28;20029;-66
2023/08/10 04:16:19;;;;;;;8.50;2.80;;;;;;;12.15;100.00;102035.91;10455885;28;20040;-66
2023/08/10 04:21:21;;;;;;;6.53;3.45;;;;;;;12.06;100.00;102016.06;10454481;28;20041;-66
2023/08/10 04:26:21;;;;;;;5.38;3.70;;;;;;;12.21;100.00;102040.47;10455323;28;20045;-66
2023/08/10 04:31:21;;;;;;;6.30;2.95;;;;;;;12.23;100.00;102038.31;10455910;28;20134;-66
2023/08/10 04:36:22;;;;;;;6.93;3.60;;;;;;;12.30;100.00;102048.19;10457162;28;20048;-66
2023/08/10 04:41:23;;;;;;;8.85;3.20;;;;;;;12.35;100.00;102033.66;10456598;28;20067;-67
2023/08/10 04:46:24;;;;;;;8.98;3.75;;;;;;;12.42;100.00;102036.31;10456388;28;20128;-67
2023/08/10 04:51:24;;;;;;;5.72;3.78;;;;;;;12.51;100.00;102045.94;10453003;28;20057;-66
2023/08/10 04:56:25;;;;;;;9.60;4.00;;;;;;;12.57;100.00;102044.97;10456920;28;20041;-67
2023/08/10 05:01:26;;;;;;;4.95;3.60;;;;;;;12.66;100.00;102046.28;10454248;28;20037;-66
2023/08/10 05:06:26;;;;;;;8.43;3.47;;;;;;;12.77;100.00;102055.66;10455509;28;20045;-66
2023/08/10 05:11:27;;;;;;;11.98;4.13;;;;;;;12.85;100.00;102060.00;10456079;28;20473;-66
2023/08/10 05:16:27;;;;;;;8.27;3.10;;;;;;;12.97;100.00;102049.78;10453890;28;20049;-67
2023/08/10 05:21:28;;;;;;;7.13;3.67;;;;;;;13.10;100.00;102052.28;10446961;28;20037;-67
2023/08/10 05:26:28;;;;;;;6.90;3.35;;;;;;;13.23;100.00;102047.56;10454965;28;20049;-67
2023/08/10 05:31:29;;;;;;;4.97;3.65;;;;;;;13.36;100.00;102047.34;10455082;28;20037;-67
2023/08/10 05:36:29;;;;;;;3.38;2.58;;;;;;;13.53;100.00;102053.78;10452155;28;20037;-66
2023/08/10 05:41:30;;;;;;;6.25;3.42;;;;;;;13.73;100.00;102055.28;10454395;28;20099;-66
2023/08/10 05:46:30;;;;;;;6.90;2.97;;;;;;;13.95;100.00;102037.97;10455643;28;20401;-66
2023/08/10 05:51:31;;;;;;;6.45;2.85;;;;;;;14.08;100.00;102043.22;10450782;28;20048;-67
2023/08/10 05:56:31;;;;;;;6.25;3.45;;;;;;;14.17;100.00;102041.69;10461798;28;20037;-66
2023/08/10 06:01:31;;;;;;;3.10;2.35;;;;;;;14.33;100.00;102057.50;10463846;28;20041;-66
2023/08/10 06:06:32;;;;;;;9.68;3.00;;;;;;;14.50;100.00;102051.13;10463229;28;20052;-66
2023/08/10 06:11:32;;;;;;;4.65;2.75;;;;;;;14.71;100.00;102055.09;10460924;28;20041;-66
2023/08/10 06:16:33;;;;;;;6.80;3.67;;;;;;;14.85;100.00;102052.81;10462783;28;20041;-66
2023/08/10 06:21:34;;;;;;;7.95;3.53;;;;;;;15.00;100.00;102066.06;10461286;28;20119;-66
2023/08/10 06:26:34;;;;;;;7.78;3.40;;;;;;;15.09;100.00;102056.22;10461729;28;20045;-66
2023/08/10 06:31:35;;;;;;;4.22;2.25;;;;;;;15.22;100.00;102069.69;10456155;28;20053;-66
2023/08/10 06:36:35;;;;;;;7.57;2.47;;;;;;;15.25;100.00;102065.56;10442218;28;20061;-66
2023/08/10 06:41:36;;;;;;;4.72;2.63;;;;;;;15.13;100.00;102072.09;10461107;28;20025;-67
2023/08/10 06:46:37;;;;;;;6.22;2.67;;;;;;;15.00;100.00;102077.16;10450549;28;20040;-68
2023/08/10 06:51:37;;;;;;;5.95;2.60;;;;;;;14.87;100.00;102073.63;10409115;28;20048;-67
2023/08/10 06:56:38;;;;;;;3.72;2.40;;;;;;;14.93;100.00;102071.78;10445754;28;20048;-66
2023/08/10 07:01:38;;;;;;;3.83;2.58;;;;;;;15.20;100.00;102071.88;10447268;28;20033;-67
2023/08/10 07:06:39;;;;;;;3.83;2.08;;;;;;;15.53;100.00;102068.16;10427180;28;20101;-66
2023/08/10 07:11:39;;;;;;;7.50;2.00;;;;;;;15.80;100.00;102064.63;10443756;28;20053;-66
2023/08/10 07:16:39;;;;;;;4.68;1.60;;;;;;;15.99;100.00;102059.53;10447178;28;20044;-66
2023/08/10 07:21:40;;;;;;;8.23;1.98;;;;;;;16.12;100.00;102047.16;10447052;28;20040;-67
2023/08/10 07:26:40;;;;;;;4.57;1.80;;;;;;;16.50;100.00;102061.97;10458456;28;20049;-67
2023/08/10 07:31:41;;;;;;;3.17;1.42;;;;;;;16.70;100.00;102055.72;10460994;28;20037;-67
2023/08/10 07:36:41;;;;;;;3.03;1.08;;;;;;;16.82;100.00;102059.16;10457551;28;20037;-67
2023/08/10 07:41:42;;;;;;;5.68;1.80;;;;;;;16.94;100.00;102064.53;10459014;28;20047;-67
2023/08/10 07:46:44;;;;;;;5.38;1.00;;;;;;;17.00;100.00;102063.47;10458655;28;20063;-67
2023/08/10 07:51:47;;;;;;;4.45;0.60;;;;;;;17.16;100.00;102067.19;10455725;28;20045;-66
2023/08/10 07:56:47;;;;;;;3.95;0.73;;;;;;;17.26;100.00;102069.16;10457597;28;20049;-67
2023/08/10 08:01:48;;;;;;;5.30;0.93;;;;;;;17.38;100.00;102072.56;10453931;28;20052;-66
2023/08/10 08:06:48;;;;;;;6.95;1.00;;;;;;;17.50;100.00;102072.34;10456557;28;20057;-67
2023/08/10 08:11:49;;;;;;;1.75;0.80;;;;;;;17.75;100.00;102079.97;10449365;28;20033;-67
2023/08/10 08:16:49;;;;;;;4.80;1.02;;;;;;;18.09;100.00;102076.75;10438931;28;20339;-67
2023/08/10 08:21:50;;;;;;;2.58;1.23;;;;;;;18.64;100.00;102071.47;10449148;28;20052;-66
2023/08/10 08:26:50;;;;;;;4.70;1.00;;;;;;;19.14;100.00;102076.19;10456987;28;20033;-66
2023/08/10 08:31:51;;;;;;;4.00;0.75;;;;;;;19.35;100.00;102071.38;10458723;28;20093;-67
2023/08/10 08:36:51;;;;;;;3.53;1.20;;;;;;;19.12;100.00;102070.03;10419694;28;20481;-67
2023/08/10 08:41:51;;;;;;;6.03;1.00;;;;;;;19.33;100.00;102078.38;10456524;28;20471;-67
2023/08/10 08:46:52;;;;;;;6.47;1.48;;;;;;;19.31;100.00;102075.03;10437282;28;20045;-67
2023/08/10 08:51:52;;;;;;;7.50;1.63;;;;;;;19.31;100.00;102055.47;10450937;28;20086;-68
2023/08/10 08:56:53;;;;;;;9.10;1.08;;;;;;;19.30;100.00;102029.50;10437395;28;20048;-67
2023/08/10 09:01:54;;;;;;;2.75;0.70;;;;;;;19.59;100.00;102053.94;10455337;28;20037;-68
2023/08/10 09:06:54;;;;;;;6.90;0.95;;;;;;;19.75;100.00;102063.94;10426224;28;20509;-67
2023/08/10 09:11:55;;;;;;;2.88;0.73;;;;;;;19.67;100.00;102044.13;10456530;28;20059;-67
2023/08/10 09:16:56;;;;;;;6.65;1.00;;;;;;;20.00;100.00;102042.56;10456267;28;20048;-67
2023/08/10 09:21:56;;;;;;;5.75;0.80;;;;;;;20.14;100.00;102039.97;10446339;28;20041;-67
2023/08/10 09:27:01;;;;;;;3.63;0.90;;;;;;;19.85;100.00;102051.88;10456805;28;20076;-67
2023/08/10 09:32:02;;;;;;;3.67;0.90;;;;;;;19.75;100.00;102051.94;10465474;28;20049;-66
2023/08/10 09:37:02;;;;;;;2.95;0.60;;;;;;;19.91;100.00;102049.91;10427538;28;20072;-67
2023/08/10 09:42:03;;;;;;;5.05;0.52;;;;;;;20.15;100.00;102058.38;10461017;28;20036;-68
2023/08/10 09:47:04;;;;;;;4.20;0.98;;;;;;;20.23;100.00;102057.78;10444768;28;20639;-68
2023/08/10 09:52:05;;;;;;;2.78;0.57;;;;;;;20.18;100.00;102057.00;10460361;28;20029;-68
2023/08/10 09:57:05;;;;;;;1.67;0.63;;;;;;;20.12;100.00;102057.03;10460745;28;20045;-68
2023/08/10 10:02:07;;;;;;;2.70;0.95;;;;;;;20.14;100.00;102065.13;10445336;28;20044;-67
2023/08/10 10:07:09;;;;;;;2.42;0.60;;;;;;;20.07;100.00;102057.06;10435329;28;20049;-68
2023/08/10 10:12:11;;;;;;;5.70;0.95;;;;;;;20.26;100.00;102043.22;10459637;28;20040;-67
2023/08/10 10:17:12;;;;;;;2.67;0.70;;;;;;;20.32;100.00;102033.66;10460005;28;20033;-68
2023/08/10 10:22:12;;;;;;;2.00;0.77;;;;;;;20.46;100.00;102032.97;10454014;28;20037;-68
2023/08/10 10:27:13;;;;;;;9.82;0.90;;;;;;;20.44;100.00;102038.03;10427425;28;20053;-67
2023/08/10 10:32:15;;;;;;;1.55;0.80;;;;;;;20.44;100.00;102040.81;10437142;28;20473;-68
2023/08/10 10:37:16;;;;;;;3.47;0.90;;;;;;;20.62;100.00;102042.94;10427143;28;20511;-68
2023/08/10 10:42:17;;;;;;;3.15;0.90;;;;;;;20.75;100.00;102038.59;10484993;28;20032;-68
2023/08/10 10:47:18;;;;;;;3.05;0.70;;;;;;;20.57;100.00;102026.19;10460539;28;20048;-68
2023/08/10 10:52:34;;;;;;;5.28;0.70;;;;;;;20.81;100.00;102034.63;10430127;28;20033;-68
2023/08/10 10:57:37;;;;;;;2.55;0.73;;;;;;;20.85;100.00;102021.72;10448114;28;20401;-67
2023/08/10 11:02:37;;;;;;;1.60;0.70;;;;;;;21.09;100.00;102023.72;10457415;28;20087;-67
2023/08/10 11:07:45;;;;;;;1.65;0.50;;;;;;;21.07;100.00;102018.41;10459185;28;20475;-68
2023/08/10 11:12:48;;;;;;;1.42;0.70;;;;;;;21.01;100.00;102008.38;10458941;28;20108;-67
2023/08/10 11:17:53;;;;;;;1.60;0.50;;;;;;;20.69;100.00;102011.81;10440998;28;20049;-68
2023/08/10 11:22:53;;;;;;;2.50;0.80;;;;;;;20.90;100.00;102021.69;10442465;28;20048;-67
2023/08/10 11:27:54;;;;;;;3.88;0.60;;;;;;;20.52;100.00;102006.63;10459463;28;20052;-67
2023/08/10 11:32:54;;;;;;;1.85;0.52;;;;;;;20.86;100.00;102040.19;10463814;28;20044;-67
2023/08/10 11:37:55;;;;;;;1.70;0.70;;;;;;;20.98;100.00;102023.00;10475641;28;20036;-68
2023/08/10 11:43:11;;;;;;;3.33;0.90;;;;;;;21.12;100.00;102026.72;10479383;28;20036;-68
2023/08/10 11:48:14;;;;;;;2.77;0.80;;;;;;;21.17;100.00;101962.28;10457432;28;20037;-68
2023/08/10 11:53:16;;;;;;;2.97;0.70;;;;;;;21.63;100.00;102022.47;10456666;28;20032;-67
2023/08/10 11:58:18;;;;;;;2.22;0.60;;;;;;;21.75;100.00;102016.44;10458692;28;20059;-68
2023/08/10 12:03:27;;;;;;;4.30;0.90;;;;;;;21.87;100.00;102004.75;10438896;28;20041;-68
2023/08/10 12:08:29;;;;;;;7.55;1.20;;;;;;;21.77;100.00;101994.53;10464214;28;20083;-68
2023/08/10 12:13:30;;;;;;;5.70;0.75;;;;;;;21.88;100.00;102006.44;10417086;28;20037;-67
2023/08/10 12:18:30;;;;;;;3.17;0.60;;;;;;;21.77;100.00;102006.59;10416372;28;20034;-67
2023/08/10 12:23:31;;;;;;;1.92;0.70;;;;;;;21.55;100.00;102015.56;10411263;28;20516;-67
2023/08/10 12:28:31;;;;;;;1.38;0.45;;;;;;;21.33;100.00;102012.47;10414155;28;20049;-68
2023/08/10 12:33:33;;;;;;;2.17;0.63;;;;;;;21.16;100.00;102005.41;10416470;28;20049;-67
2023/08/10 12:38:33;;;;;;;3.17;0.68;;;;;;;21.36;100.00;102003.50;10415004;28;20041;-68
2023/08/10 12:43:34;;;;;;;2.10;0.80;;;;;;;21.03;100.00;101947.34;10449814;28;20982;-68
2023/08/10 12:48:34;;;;;;;2.97;1.45;;;;;;;21.30;100.00;102018.69;10444040;28;20048;-68
2023/08/10 12:53:35;;;;;;;3.83;0.77;;;;;;;21.14;100.00;102032.03;10456253;28;20052;-68
2023/08/10 12:58:35;;;;;;;5.03;0.63;;;;;;;21.06;100.00;102024.28;10455347;28;20037;-68
2023/08/10 13:03:36;;;;;;;5.25;0.80;;;;;;;20.91;100.00;102030.91;10454904;28;20048;-66
2023/08/10 13:08:36;;;;;;;2.10;0.60;;;;;;;20.86;100.00;102042.16;10455977;28;20569;-68
2023/08/10 13:13:36;;;;;;;5.63;0.90;;;;;;;20.54;100.00;102035.97;10453371;28;20036;-67
2023/08/10 13:18:37;;;;;;;4.28;0.73;;;;;;;20.69;100.00;102037.00;10457447;28;20033;-68
2023/08/10 13:23:38;;;;;;;2.50;0.90;;;;;;;20.11;100.00;102037.72;10452205;28;20041;-68
2023/08/10 13:28:38;;;;;;;8.00;1.38;;;;;;;20.19;100.00;102042.69;10432769;28;20037;-67
2023/08/10 13:33:39;;;;;;;2.10;0.60;;;;;;;20.35;100.00;102044.25;10456281;28;20040;-68
2023/08/10 13:38:39;;;;;;;2.03;0.63;;;;;;;20.62;100.00;102037.34;10445661;28;20048;-68
2023/08/10 13:43:40;;;;;;;2.30;0.73;;;;;;;20.95;100.00;102055.19;10435810;28;20068;-68
2023/08/10 13:48:40;;;;;;;2.72;0.98;;;;;;;20.97;100.00;102043.72;10456162;28;20048;-68
2023/08/10 13:53:41;;;;;;;2.60;1.00;;;;;;;21.23;100.00;102040.59;10454344;28;20572;-68
2023/08/10 13:58:41;;;;;;;3.05;1.40;;;;;;;21.15;100.00;102023.34;10453705;28;20041;-68
2023/08/10 14:03:42;;;;;;;4.28;0.90;;;;;;;21.31;100.00;102028.75;10450825;28;20037;-68
2023/08/10 14:08:43;;;;;;;5.32;1.23;;;;;;;21.36;100.00;102035.13;10445524;28;20033;-68
2023/08/10 14:13:43;;;;;;;5.50;1.45;;;;;;;21.13;100.00;102034.00;10456885;28;20041;-68
2023/08/10 14:18:44;;;;;;;3.70;1.05;;;;;;;20.86;100.00;102044.97;10462975;28;20033;-68
2023/08/10 14:23:44;;;;;;;4.72;1.50;;;;;;;20.47;100.00;102035.50;10455508;28;20044;-67
2023/08/10 14:28:45;;;;;;;4.32;1.30;;;;;;;20.13;100.00;102052.25;10481580;28;20043;-68
2023/08/10 14:33:45;;;;;;;5.80;2.10;;;;;;;20.01;100.00;102048.97;10479006;28;20051;-68
2023/08/10 14:38:46;;;;;;;6.93;3.03;;;;;;;19.71;100.00;102051.69;10484548;28;20048;-68
2023/08/10 14:43:46;;;;;;;4.60;2.45;;;;;;;19.48;100.00;102066.28;10463942;28;20061;-67
2023/08/10 14:48:47;;;;;;;9.68;3.08;;;;;;;19.33;100.00;102070.00;10484579;28;20040;-67
2023/08/10 14:53:47;;;;;;;6.47;2.80;;;;;;;19.31;100.00;102073.06;10480373;28;20064;-68
2023/08/10 14:58:47;;;;;;;3.45;2.40;;;;;;;19.13;100.00;102076.47;10480127;28;20048;-68
2023/08/10 15:03:48;;;;;;;5.32;2.85;;;;;;;18.93;100.00;102085.69;10432037;28;20050;-68
2023/08/10 15:08:49;;;;;;;4.82;2.90;;;;;;;18.85;100.00;102086.25;10414086;28;20037;-68
2023/08/10 15:13:49;;;;;;;7.20;2.50;;;;;;;18.96;100.00;102079.56;10419419;28;20046;-68
2023/08/10 15:18:50;;;;;;;8.10;3.53;;;;;;;18.91;100.00;102072.06;10415186;28;20038;-67
2023/08/10 15:23:51;;;;;;;6.55;2.90;;;;;;;18.86;100.00;102065.63;10418351;28;20100;-68
2023/08/10 15:28:52;;;;;;;5.45;2.50;;;;;;;18.90;100.00;102073.16;10414508;28;20041;-68
2023/08/10 15:33:52;;;;;;;6.32;3.38;;;;;;;19.02;100.00;102061.69;10415553;28;20080;-68
2023/08/10 15:38:53;;;;;;;6.38;2.60;;;;;;;19.13;100.00;102062.50;10418620;28;20054;-68
2023/08/10 15:43:53;;;;;;;4.63;2.65;;;;;;;19.36;100.00;102061.03;10455546;28;20048;-67
2023/08/10 15:48:54;;;;;;;7.25;3.53;;;;;;;19.50;100.00;102056.50;10460418;28;20045;-67
2023/08/10 15:53:54;;;;;;;4.32;2.70;;;;;;;19.64;100.00;102064.28;10455653;28;20040;-68
2023/08/10 15:58:54;;;;;;;3.65;2.88;;;;;;;19.67;100.00;102050.53;10441181;28;20060;-68
2023/08/10 16:03:55;;;;;;;6.00;2.40;;;;;;;19.66;100.00;102062.84;10435735;28;20041;-68
2023/08/10 16:08:55;;;;;;;2.60;1.70;;;;;;;19.62;100.00;102063.72;10440610;28;20048;-68
2023/08/10 16:13:56;;;;;;;7.00;2.90;;;;;;;19.54;100.00;102062.34;10455006;28;20072;-67
2023/08/10 16:18:56;;;;;;;7.97;2.92;;;;;;;19.45;100.00;102061.25;10455967;28;20049;-67
2023/08/10 16:23:57;;;;;;;4.32;2.38;;;;;;;19.33;100.00;102059.66;10450553;28;20041;-69
2023/08/10 16:28:58;;;;;;;7.18;2.90;;;;;;;19.19;100.00;102055.78;10448914;28;20053;-68
2023/08/10 16:33:58;;;;;;;3.58;2.40;;;;;;;19.05;100.00;102066.69;10470347;28;20044;-67
2023/08/10 16:38:59;;;;;;;4.15;2.25;;;;;;;18.92;100.00;102079.28;10478249;28;20405;-68
2023/08/10 16:43:59;;;;;;;5.00;2.10;;;;;;;18.82;100.00;102072.91;10462943;28;20386;-68
2023/08/10 16:49:00;;;;;;;7.20;2.90;;;;;;;18.61;100.00;102072.03;10472511;28;20041;-68
2023/08/10 16:54:00;;;;;;;7.72;2.60;;;;;;;18.55;100.00;102072.03;10461231;28;20408;-67
2023/08/10 16:59:00;;;;;;;5.90;2.45;;;;;;;18.52;100.00;102072.59;10469663;28;20043;-68
2023/08/10 17:04:01;;;;;;;5.43;2.40;;;;;;;18.46;100.00;102065.34;10459541;28;20058;-68
2023/08/10 17:09:02;;;;;;;4.07;2.35;;;;;;;18.41;100.00;102068.13;10458681;28;20053;-67
2023/08/10 17:14:03;;;;;;;5.53;3.28;;;;;;;18.36;100.00;102065.34;10474990;28;20036;-68
2023/08/10 17:19:04;;;;;;;10.50;4.00;;;;;;;18.28;100.00;102063.94;10458349;28;20057;-67
2023/08/10 17:24:05;;;;;;;7.97;4.10;;;;;;;18.13;100.00;102052.78;10469903;28;21222;-67
2023/08/10 17:29:05;;;;;;;10.55;4.03;;;;;;;18.09;100.00;102060.03;10400409;28;20034;-67
2023/08/10 17:34:06;;;;;;;9.43;4.00;;;;;;;18.04;100.00;102060.00;10404909;28;20155;-68
2023/08/10 17:39:06;;;;;;;5.72;3.25;;;;;;;17.95;100.00;102052.19;10405350;28;20057;-67
2023/08/10 17:44:07;;;;;;;9.43;3.85;;;;;;;17.93;100.00;102059.97;10404345;28;20053;-67
2023/08/10 17:49:08;;;;;;;7.25;3.92;;;;;;;17.87;100.00;102052.72;10392012;28;20037;-68
2023/08/10 17:54:10;;;;;;;10.05;4.97;;;;;;;17.82;100.00;102055.47;10421813;28;20040;-68
2023/08/10 17:59:10;;;;;;;6.57;3.85;;;;;;;17.67;100.00;102034.00;10453156;28;20037;-67
2023/08/10 18:04:14;;;;;;;7.35;4.07;;;;;;;17.71;100.00;102048.19;10475055;28;20043;-67
2023/08/10 18:09:15;;;;;;;5.93;4.38;;;;;;;17.63;100.00;102035.66;10463447;28;20502;-67
2023/08/10 18:14:15;;;;;;;11.65;4.45;;;;;;;17.58;100.00;102034.78;10475252;28;20033;-67
2023/08/10 18:19:16;;;;;;;5.80;4.07;;;;;;;17.55;100.00;102037.03;10485182;28;20036;-68
2023/08/10 18:24:16;;;;;;;10.32;4.05;;;;;;;17.48;100.00;102039.19;10480388;28;20065;-68
2023/08/10 18:29:17;;;;;;;7.35;4.18;;;;;;;17.45;100.00;102045.34;10479468;28;20044;-67
2023/08/10 18:34:17;;;;;;;9.07;4.30;;;;;;;17.42;100.00;102040.28;10421172;28;20037;-67
2023/08/10 18:39:17;;;;;;;9.45;4.65;;;;;;;17.39;100.00;102040.84;10416083;28;20045;-66
2023/08/10 18:44:24;;;;;;;8.88;4.88;;;;;;;17.22;100.00;102013.22;10411634;28;20045;-67
2023/08/10 18:49:25;;;;;;;11.38;4.97;;;;;;;17.35;100.00;102053.63;10471084;28;20075;-67
2023/08/10 18:54:25;;;;;;;9.52;5.40;;;;;;;17.31;100.00;102044.16;10480524;28;20037;-66
2023/08/10 18:59:26;;;;;;;8.85;5.15;;;;;;;17.28;100.00;102036.34;10459840;28;20035;-66
2023/08/10 19:04:26;;;;;;;7.55;4.63;;;;;;;17.19;100.00;102029.63;10468745;28;20102;-67
2023/08/10 19:09:27;;;;;;;9.18;5.47;;;;;;;17.10;100.00;102035.69;10472053;28;20037;-67
2023/08/10 19:14:28;;;;;;;9.93;5.00;;;;;;;17.15;100.00;102046.84;10480920;28;20045;-67
2023/08/10 19:19:28;;;;;;;9.00;4.80;;;;;;;17.13;100.00;102039.88;10449371;28;20036;-67
2023/08/10 19:24:29;;;;;;;7.47;4.53;;;;;;;17.09;100.00;102047.91;10481468;28;20037;-65
2023/08/10 19:29:30;;;;;;;7.47;4.57;;;;;;;17.06;100.00;102042.09;10467449;28;20100;-67
2023/08/10 19:34:30;;;;;;;7.75;5.38;;;;;;;17.00;100.00;102044.00;10430897;28;20044;-67
2023/08/10 19:39:31;;;;;;;7.55;4.95;;;;;;;17.00;100.00;102052.34;10457864;28;20044;-66
2023/08/10 19:44:31;;;;;;;7.80;4.10;;;;;;;16.86;100.00;102043.63;10458735;28;20106;-67
2023/08/10 19:49:32;;;;;;;8.15;5.70;;;;;;;16.93;100.00;102055.38;10420907;28;20033;-66
2023/08/10 19:54:33;;;;;;;9.80;5.65;;;;;;;16.91;100.00;102054.78;10420093;28;20048;-71
2023/08/10 19:59:34;;;;;;;7.07;4.75;;;;;;;16.94;100.00;102061.75;10427440;28;20053;-67
2023/08/10 20:04:35;;;;;;;9.32;6.05;;;;;;;16.90;100.00;102052.28;10401729;28;20430;-67
2023/08/10 20:09:35;;;;;;;7.38;5.53;;;;;;;16.83;100.00;102048.91;10378964;28;20057;-67
2023/08/10 20:14:37;;;;;;;11.05;7.53;;;;;;;16.84;100.00;102050.56;10402529;28;20522;-68
2023/08/10 20:19:37;;;;;;;10.18;7.57;;;;;;;16.83;100.00;102046.13;10406441;28;20136;-67
2023/08/10 20:24:38;;;;;;;9.18;6.53;;;;;;;16.78;100.00;102035.75;10441504;28;20045;-68
2023/08/10 20:29:38;;;;;;;9.00;6.40;;;;;;;16.86;100.00;102048.34;10479228;28;20040;-67
2023/08/10 20:34:39;;;;;;;9.00;6.82;;;;;;;16.86;100.00;102046.41;10475484;28;20055;-67
2023/08/10 20:39:39;;;;;;;11.27;6.05;;;;;;;16.84;100.00;102040.25;10458644;28;20116;-68
2023/08/10 20:44:40;;;;;;;9.95;6.20;;;;;;;16.85;100.00;102043.91;10418069;28;20079;-67
2023/08/10 20:49:40;;;;;;;11.25;5.53;;;;;;;16.83;100.00;102043.34;10411308;28;20076;-67
2023/08/10 20:54:41;;;;;;;8.15;5.82;;;;;;;16.81;100.00;102045.56;10403452;28;20041;-67
2023/08/10 20:59:41;;;;;;;9.32;6.22;;;;;;;16.79;100.00;102044.94;10431288;28;20061;-68
2023/08/10 21:04:42;;;;;;;7.20;5.32;;;;;;;16.78;100.00;102052.44;10444972;28;20075;-67
2023/08/10 21:09:43;;;;;;;10.05;6.93;;;;;;;16.80;100.00;102049.38;10451745;28;20048;-67
2023/08/10 21:14:43;;;;;;;6.68;5.30;;;;;;;16.75;100.00;102042.69;10436027;28;20100;-67
2023/08/10 21:19:44;;;;;;;6.93;6.00;;;;;;;16.77;100.00;102036.03;10452164;28;20043;-68
2023/08/10 21:24:44;;;;;;;8.63;4.63;;;;;;;16.76;100.00;102043.50;10450107;28;20041;-68
2023/08/10 21:29:45;;;;;;;7.80;5.00;;;;;;;16.73;100.00;102036.56;10455974;28;20041;-67
2023/08/10 21:34:46;;;;;;;5.70;4.30;;;;;;;16.76;100.00;102046.28;10429684;28;20037;-67
2023/08/10 21:39:47;;;;;;;7.13;4.90;;;;;;;16.75;100.00;102048.25;10450518;28;20271;-67
2023/08/10 21:44:47;;;;;;;9.38;4.90;;;;;;;16.74;100.00;102059.63;10455940;28;20059;-68
2023/08/10 21:49:48;;;;;;;10.95;5.68;;;;;;;16.72;100.00;102054.38;10440365;28;20044;-67
2023/08/10 21:54:48;;;;;;;10.07;4.93;;;;;;;16.71;100.00;102061.00;10456574;28;20049;-67
2023/08/10 21:59:49;;;;;;;10.05;6.28;;;;;;;16.71;100.00;102058.22;10461288;28;20048;-67
2023/08/10 22:04:49;;;;;;;8.10;4.90;;;;;;;16.68;100.00;102050.44;10459262;28;20060;-67
2023/08/10 22:09:50;;;;;;;6.30;4.57;;;;;;;16.69;100.00;102051.28;10460238;28;20052;-67
2023/08/10 22:14:51;;;;;;;5.70;4.30;;;;;;;16.67;100.00;102048.75;10456834;28;20037;-67
2023/08/10 22:19:51;;;;;;;9.35;4.78;;;;;;;16.64;100.00;102043.72;10472325;28;20041;-68
2023/08/10 22:24:52;;;;;;;5.68;4.93;;;;;;;16.67;100.00;102057.09;10463735;28;20059;-67
2023/08/10 22:29:52;;;;;;;4.53;3.72;;;;;;;16.66;100.00;102049.88;10482888;28;20040;-67
2023/08/10 22:34:53;;;;;;;5.95;4.38;;;;;;;16.64;100.00;102046.50;10482250;28;20037;-67
2023/08/10 22:39:53;;;;;;;8.38;4.78;;;;;;;16.60;100.00;102041.72;10484683;28;20049;-66
2023/08/10 22:44:54;;;;;;;6.47;4.53;;;;;;;16.66;100.00;102043.44;10464584;28;20044;-67